sensor_id;sensor_type;location;lat;lon;timestamp;pressure;altitude;pressure_sealevel;temperature
68012;BMP180;54794;48.348;7.878;2022-09-09T00:02:25;98758.00;;;21.90
68012;BMP180;54794;48.348;7.878;2022-09-09T00:05:17;98754.00;;;22.00
68012;BMP180;54794;48.348;7.878;2022-09-09T00:07:51;98748.00;;;22.00
68012;BMP180;54794;48.348;7.878;2022-09-09T00:10:29;98763.00;;;22.00
68012;BMP180;54794;48.348;7.878;2022-09-09T00:21:14;98760.00;;;22.00
68012;BMP180;54794;48.348;7.878;2022-09-09T00:23:53;98769.00;;;22.00
68012;BMP180;54794;48.348;7.878;2022-09-09T00:31:30;98778.00;;;22.10
68012;BMP180;54794;48.348;7.878;2022-09-09T00:34:04;98764.00;;;22.10
68012;BMP180;54794;48.348;7.878;2022-09-09T00:36:35;98785.00;;;22.10
68012;BMP180;54794;48.348;7.878;2022-09-09T00:39:04;98771.00;;;22.10
68012;BMP180;54794;48.348;7.878;2022-09-09T00:44:55;98769.00;;;22.10
68012;BMP180;54794;48.348;7.878;2022-09-09T00:47:41;98767.00;;;22.20
68012;BMP180;54794;48.348;7.878;2022-09-09T00:50:31;98770.00;;;22.20
68012;BMP180;54794;48.348;7.878;2022-09-09T00:53:20;98776.00;;;22.20
68012;BMP180;54794;48.348;7.878;2022-09-09T00:58:38;98779.00;;;22.20
68012;BMP180;54794;48.348;7.878;2022-09-09T01:01:10;98777.00;;;22.20
68012;BMP180;54794;48.348;7.878;2022-09-09T01:03:47;98776.00;;;22.30
68012;BMP180;54794;48.348;7.878;2022-09-09T01:06:33;98772.00;;;22.30
68012;BMP180;54794;48.348;7.878;2022-09-09T01:28:01;98735.00;;;22.40
68012;BMP180;54794;48.348;7.878;2022-09-09T01:30:28;98729.00;;;22.40
68012;BMP180;54794;48.348;7.878;2022-09-09T01:32:57;98728.00;;;22.40
68012;BMP180;54794;48.348;7.878;2022-09-09T01:35:54;98731.00;;;22.40
68012;BMP180;54794;48.348;7.878;2022-09-09T01:38:21;98738.00;;;22.40
68012;BMP180;54794;48.348;7.878;2022-09-09T01:40:49;98731.00;;;22.40
68012;BMP180;54794;48.348;7.878;2022-09-09T01:43:20;98736.00;;;22.40
68012;BMP180;54794;48.348;7.878;2022-09-09T01:45:49;98723.00;;;22.40
68012;BMP180;54794;48.348;7.878;2022-09-09T01:48:17;98731.00;;;22.40
68012;BMP180;54794;48.348;7.878;2022-09-09T01:50:45;98723.00;;;22.40
68012;BMP180;54794;48.348;7.878;2022-09-09T01:53:13;98719.00;;;22.40
68012;BMP180;54794;48.348;7.878;2022-09-09T01:55:41;98722.00;;;22.30
68012;BMP180;54794;48.348;7.878;2022-09-09T01:58:17;98724.00;;;22.30
68012;BMP180;54794;48.348;7.878;2022-09-09T02:01:17;98714.00;;;22.30
68012;BMP180;54794;48.348;7.878;2022-09-09T02:03:52;98714.00;;;22.20
68012;BMP180;54794;48.348;7.878;2022-09-09T02:06:35;98726.00;;;22.20
68012;BMP180;54794;48.348;7.878;2022-09-09T02:09:10;98720.00;;;22.20
68012;BMP180;54794;48.348;7.878;2022-09-09T02:11:38;98723.00;;;22.10
68012;BMP180;54794;48.348;7.878;2022-09-09T02:14:09;98726.00;;;22.10
68012;BMP180;54794;48.348;7.878;2022-09-09T02:16:56;98733.00;;;22.10
68012;BMP180;54794;48.348;7.878;2022-09-09T02:19:31;98723.00;;;22.00
68012;BMP180;54794;48.348;7.878;2022-09-09T02:22:00;98717.00;;;22.00
68012;BMP180;54794;48.348;7.878;2022-09-09T02:24:29;98731.00;;;22.00
68012;BMP180;54794;48.348;7.878;2022-09-09T02:26:58;98718.00;;;22.00
68012;BMP180;54794;48.348;7.878;2022-09-09T02:29:47;98732.00;;;22.00
68012;BMP180;54794;48.348;7.878;2022-09-09T02:32:19;98726.00;;;21.90
68012;BMP180;54794;48.348;7.878;2022-09-09T02:35:03;98720.00;;;21.90
68012;BMP180;54794;48.348;7.878;2022-09-09T02:37:36;98728.00;;;21.90
68012;BMP180;54794;48.348;7.878;2022-09-09T02:40:05;98742.00;;;21.80
68012;BMP180;54794;48.348;7.878;2022-09-09T02:42:38;98728.00;;;21.80
68012;BMP180;54794;48.348;7.878;2022-09-09T02:45:06;98735.00;;;21.80
68012;BMP180;54794;48.348;7.878;2022-09-09T02:47:35;98728.00;;;21.80
68012;BMP180;54794;48.348;7.878;2022-09-09T02:50:12;98729.00;;;21.80
68012;BMP180;54794;48.348;7.878;2022-09-09T02:57:59;98729.00;;;21.70
68012;BMP180;54794;48.348;7.878;2022-09-09T03:00:27;98723.00;;;21.70
68012;BMP180;54794;48.348;7.878;2022-09-09T03:02:54;98708.00;;;21.70
68012;BMP180;54794;48.348;7.878;2022-09-09T03:05:21;98727.00;;;21.70
68012;BMP180;54794;48.348;7.878;2022-09-09T03:07:48;98721.00;;;21.70
68012;BMP180;54794;48.348;7.878;2022-09-09T03:10:16;98711.00;;;21.70
68012;BMP180;54794;48.348;7.878;2022-09-09T03:12:43;98716.00;;;21.70
68012;BMP180;54794;48.348;7.878;2022-09-09T03:15:10;98717.00;;;21.70
68012;BMP180;54794;48.348;7.878;2022-09-09T03:17:37;98714.00;;;21.70
68012;BMP180;54794;48.348;7.878;2022-09-09T03:20:04;98714.00;;;21.70
68012;BMP180;54794;48.348;7.878;2022-09-09T03:22:31;98708.00;;;21.70
68012;BMP180;54794;48.348;7.878;2022-09-09T03:24:58;98703.00;;;21.70
68012;BMP180;54794;48.348;7.878;2022-09-09T03:27:25;98695.00;;;21.70
68012;BMP180;54794;48.348;7.878;2022-09-09T03:29:51;98693.00;;;21.70
68012;BMP180;54794;48.348;7.878;2022-09-09T03:32:18;98693.00;;;21.70
68012;BMP180;54794;48.348;7.878;2022-09-09T03:34:45;98709.00;;;21.70
68012;BMP180;54794;48.348;7.878;2022-09-09T03:37:13;98707.00;;;21.60
68012;BMP180;54794;48.348;7.878;2022-09-09T03:39:40;98704.00;;;21.60
68012;BMP180;54794;48.348;7.878;2022-09-09T03:42:07;98705.00;;;21.60
68012;BMP180;54794;48.348;7.878;2022-09-09T03:44:34;98694.00;;;21.60
68012;BMP180;54794;48.348;7.878;2022-09-09T03:47:00;98701.00;;;21.60
68012;BMP180;54794;48.348;7.878;2022-09-09T03:49:27;98712.00;;;21.50
68012;BMP180;54794;48.348;7.878;2022-09-09T03:51:57;98699.00;;;21.50
68012;BMP180;54794;48.348;7.878;2022-09-09T03:54:25;98687.00;;;21.50
68012;BMP180;54794;48.348;7.878;2022-09-09T03:56:51;98712.00;;;21.50
68012;BMP180;54794;48.348;7.878;2022-09-09T03:59:18;98718.00;;;21.40
68012;BMP180;54794;48.348;7.878;2022-09-09T04:01:45;98711.00;;;21.40
68012;BMP180;54794;48.348;7.878;2022-09-09T04:04:13;98711.00;;;21.40
68012;BMP180;54794;48.348;7.878;2022-09-09T04:06:40;98708.00;;;21.40
68012;BMP180;54794;48.348;7.878;2022-09-09T04:09:07;98710.00;;;21.30
68012;BMP180;54794;48.348;7.878;2022-09-09T04:11:34;98717.00;;;21.30
68012;BMP180;54794;48.348;7.878;2022-09-09T04:14:00;98709.00;;;21.30
68012;BMP180;54794;48.348;7.878;2022-09-09T04:16:27;98715.00;;;21.20
68012;BMP180;54794;48.348;7.878;2022-09-09T04:18:54;98709.00;;;21.20
68012;BMP180;54794;48.348;7.878;2022-09-09T04:21:22;98713.00;;;21.20
68012;BMP180;54794;48.348;7.878;2022-09-09T04:23:49;98711.00;;;21.20
68012;BMP180;54794;48.348;7.878;2022-09-09T04:26:16;98722.00;;;21.10
68012;BMP180;54794;48.348;7.878;2022-09-09T04:28:43;98729.00;;;21.10
68012;BMP180;54794;48.348;7.878;2022-09-09T04:31:18;98727.00;;;21.10
68012;BMP180;54794;48.348;7.878;2022-09-09T04:33:47;98724.00;;;21.00
68012;BMP180;54794;48.348;7.878;2022-09-09T04:36:13;98717.00;;;21.10
68012;BMP180;54794;48.348;7.878;2022-09-09T04:38:40;98729.00;;;21.00
68012;BMP180;54794;48.348;7.878;2022-09-09T04:41:07;98736.00;;;21.00
68012;BMP180;54794;48.348;7.878;2022-09-09T04:43:34;98730.00;;;21.00
68012;BMP180;54794;48.348;7.878;2022-09-09T04:46:01;98720.00;;;21.00
68012;BMP180;54794;48.348;7.878;2022-09-09T04:48:28;98725.00;;;21.00
68012;BMP180;54794;48.348;7.878;2022-09-09T04:50:55;98731.00;;;21.00
68012;BMP180;54794;48.348;7.878;2022-09-09T04:53:22;98729.00;;;20.90
68012;BMP180;54794;48.348;7.878;2022-09-09T04:55:49;98730.00;;;20.90
68012;BMP180;54794;48.348;7.878;2022-09-09T04:58:16;98728.00;;;20.90
68012;BMP180;54794;48.348;7.878;2022-09-09T05:00:43;98738.00;;;20.90
68012;BMP180;54794;48.348;7.878;2022-09-09T05:03:10;98734.00;;;20.90
68012;BMP180;54794;48.348;7.878;2022-09-09T05:05:38;98740.00;;;20.90
68012;BMP180;54794;48.348;7.878;2022-09-09T05:08:07;98731.00;;;20.90
68012;BMP180;54794;48.348;7.878;2022-09-09T05:10:37;98743.00;;;20.90
68012;BMP180;54794;48.348;7.878;2022-09-09T05:13:05;98736.00;;;20.90
68012;BMP180;54794;48.348;7.878;2022-09-09T05:15:33;98738.00;;;20.90
68012;BMP180;54794;48.348;7.878;2022-09-09T05:18:00;98722.00;;;20.90
68012;BMP180;54794;48.348;7.878;2022-09-09T05:20:28;98735.00;;;20.90
68012;BMP180;54794;48.348;7.878;2022-09-09T05:22:55;98742.00;;;20.90
68012;BMP180;54794;48.348;7.878;2022-09-09T05:25:23;98741.00;;;21.00
68012;BMP180;54794;48.348;7.878;2022-09-09T05:27:52;98740.00;;;21.00
68012;BMP180;54794;48.348;7.878;2022-09-09T05:30:21;98725.00;;;21.00
68012;BMP180;54794;48.348;7.878;2022-09-09T05:32:48;98739.00;;;21.00
68012;BMP180;54794;48.348;7.878;2022-09-09T05:35:15;98723.00;;;21.00
68012;BMP180;54794;48.348;7.878;2022-09-09T05:37:42;98730.00;;;21.00
68012;BMP180;54794;48.348;7.878;2022-09-09T05:40:09;98749.00;;;21.10
68012;BMP180;54794;48.348;7.878;2022-09-09T05:42:37;98751.00;;;21.10
68012;BMP180;54794;48.348;7.878;2022-09-09T05:45:06;98754.00;;;21.10
68012;BMP180;54794;48.348;7.878;2022-09-09T05:47:35;98754.00;;;21.10
68012;BMP180;54794;48.348;7.878;2022-09-09T05:50:02;98749.00;;;21.20
68012;BMP180;54794;48.348;7.878;2022-09-09T05:52:29;98751.00;;;21.20
68012;BMP180;54794;48.348;7.878;2022-09-09T05:54:56;98740.00;;;21.20
68012;BMP180;54794;48.348;7.878;2022-09-09T05:57:23;98753.00;;;21.20
68012;BMP180;54794;48.348;7.878;2022-09-09T05:59:50;98750.00;;;21.30
68012;BMP180;54794;48.348;7.878;2022-09-09T06:02:16;98760.00;;;21.30
68012;BMP180;54794;48.348;7.878;2022-09-09T06:04:43;98750.00;;;21.30
68012;BMP180;54794;48.348;7.878;2022-09-09T06:07:10;98762.00;;;21.30
68012;BMP180;54794;48.348;7.878;2022-09-09T06:09:37;98752.00;;;21.40
68012;BMP180;54794;48.348;7.878;2022-09-09T06:12:04;98753.00;;;21.40
68012;BMP180;54794;48.348;7.878;2022-09-09T06:14:31;98754.00;;;21.40
68012;BMP180;54794;48.348;7.878;2022-09-09T06:16:57;98751.00;;;21.50
68012;BMP180;54794;48.348;7.878;2022-09-09T06:19:24;98758.00;;;21.50
68012;BMP180;54794;48.348;7.878;2022-09-09T06:21:52;98759.00;;;21.60
68012;BMP180;54794;48.348;7.878;2022-09-09T06:24:19;98753.00;;;21.60
68012;BMP180;54794;48.348;7.878;2022-09-09T06:26:46;98754.00;;;21.60
68012;BMP180;54794;48.348;7.878;2022-09-09T06:29:13;98751.00;;;21.70
68012;BMP180;54794;48.348;7.878;2022-09-09T06:31:39;98756.00;;;21.70
68012;BMP180;54794;48.348;7.878;2022-09-09T06:34:08;98750.00;;;21.80
68012;BMP180;54794;48.348;7.878;2022-09-09T06:36:37;98757.00;;;21.80
68012;BMP180;54794;48.348;7.878;2022-09-09T06:39:05;98763.00;;;21.90
68012;BMP180;54794;48.348;7.878;2022-09-09T06:41:39;98758.00;;;21.90
68012;BMP180;54794;48.348;7.878;2022-09-09T06:44:07;98763.00;;;22.00
68012;BMP180;54794;48.348;7.878;2022-09-09T06:46:34;98756.00;;;22.00
68012;BMP180;54794;48.348;7.878;2022-09-09T06:49:02;98772.00;;;22.10
68012;BMP180;54794;48.348;7.878;2022-09-09T06:51:31;98764.00;;;22.10
68012;BMP180;54794;48.348;7.878;2022-09-09T06:53:59;98766.00;;;22.20
68012;BMP180;54794;48.348;7.878;2022-09-09T06:56:30;98768.00;;;22.20
68012;BMP180;54794;48.348;7.878;2022-09-09T06:58:59;98777.00;;;22.20
68012;BMP180;54794;48.348;7.878;2022-09-09T07:01:29;98781.00;;;22.30
68012;BMP180;54794;48.348;7.878;2022-09-09T07:03:58;98794.00;;;22.30
68012;BMP180;54794;48.348;7.878;2022-09-09T07:06:30;98783.00;;;22.40
68012;BMP180;54794;48.348;7.878;2022-09-09T07:09:03;98782.00;;;22.40
68012;BMP180;54794;48.348;7.878;2022-09-09T07:11:33;98788.00;;;22.50
68012;BMP180;54794;48.348;7.878;2022-09-09T07:14:01;98786.00;;;22.50
68012;BMP180;54794;48.348;7.878;2022-09-09T07:16:28;98786.00;;;22.60
68012;BMP180;54794;48.348;7.878;2022-09-09T07:18:56;98788.00;;;22.60
68012;BMP180;54794;48.348;7.878;2022-09-09T07:21:28;98787.00;;;22.60
68012;BMP180;54794;48.348;7.878;2022-09-09T07:23:55;98791.00;;;22.70
68012;BMP180;54794;48.348;7.878;2022-09-09T07:26:24;98784.00;;;22.70
68012;BMP180;54794;48.348;7.878;2022-09-09T07:28:52;98793.00;;;22.80
68012;BMP180;54794;48.348;7.878;2022-09-09T07:31:28;98794.00;;;22.90
68012;BMP180;54794;48.348;7.878;2022-09-09T07:33:58;98783.00;;;22.90
68012;BMP180;54794;48.348;7.878;2022-09-09T07:36:31;98782.00;;;23.00
68012;BMP180;54794;48.348;7.878;2022-09-09T07:39:02;98772.00;;;23.10
68012;BMP180;54794;48.348;7.878;2022-09-09T07:43:59;98786.00;;;23.20
68012;BMP180;54794;48.348;7.878;2022-09-09T07:46:29;98788.00;;;23.30
68012;BMP180;54794;48.348;7.878;2022-09-09T07:48:56;98791.00;;;23.30
68012;BMP180;54794;48.348;7.878;2022-09-09T07:51:27;98792.00;;;23.40
68012;BMP180;54794;48.348;7.878;2022-09-09T07:54:01;98786.00;;;23.50
68012;BMP180;54794;48.348;7.878;2022-09-09T07:56:29;98780.00;;;23.60
68012;BMP180;54794;48.348;7.878;2022-09-09T07:58:57;98792.00;;;23.70
68012;BMP180;54794;48.348;7.878;2022-09-09T08:01:30;98796.00;;;23.80
68012;BMP180;54794;48.348;7.878;2022-09-09T08:04:06;98793.00;;;23.90
68012;BMP180;54794;48.348;7.878;2022-09-09T08:06:38;98800.00;;;24.00
68012;BMP180;54794;48.348;7.878;2022-09-09T08:09:07;98791.00;;;24.10
68012;BMP180;54794;48.348;7.878;2022-09-09T08:11:35;98796.00;;;24.20
68012;BMP180;54794;48.348;7.878;2022-09-09T08:14:06;98783.00;;;24.20
68012;BMP180;54794;48.348;7.878;2022-09-09T08:16:39;98798.00;;;24.30
68012;BMP180;54794;48.348;7.878;2022-09-09T08:19:08;98783.00;;;24.40
68012;BMP180;54794;48.348;7.878;2022-09-09T08:21:41;98795.00;;;24.50
68012;BMP180;54794;48.348;7.878;2022-09-09T08:24:10;98785.00;;;24.60
68012;BMP180;54794;48.348;7.878;2022-09-09T08:26:41;98795.00;;;24.80
68012;BMP180;54794;48.348;7.878;2022-09-09T08:29:12;98808.00;;;24.80
68012;BMP180;54794;48.348;7.878;2022-09-09T08:31:42;98797.00;;;24.90
68012;BMP180;54794;48.348;7.878;2022-09-09T08:34:09;98783.00;;;25.00
68012;BMP180;54794;48.348;7.878;2022-09-09T08:36:38;98797.00;;;25.10
68012;BMP180;54794;48.348;7.878;2022-09-09T08:39:07;98782.00;;;25.20
68012;BMP180;54794;48.348;7.878;2022-09-09T08:44:23;98775.00;;;25.40
68012;BMP180;54794;48.348;7.878;2022-09-09T08:52:31;98781.00;;;25.90
68012;BMP180;54794;48.348;7.878;2022-09-09T08:58:11;98791.00;;;26.10
68012;BMP180;54794;48.348;7.878;2022-09-09T09:03:35;98785.00;;;26.20
68012;BMP180;54794;48.348;7.878;2022-09-09T09:11:46;98779.00;;;26.30
68012;BMP180;54794;48.348;7.878;2022-09-09T09:14:24;98777.00;;;26.30
68012;BMP180;54794;48.348;7.878;2022-09-09T09:17:10;98783.00;;;26.20
68012;BMP180;54794;48.348;7.878;2022-09-09T09:19:40;98794.00;;;26.10
68012;BMP180;54794;48.348;7.878;2022-09-09T09:22:18;98806.00;;;26.10
68012;BMP180;54794;48.348;7.878;2022-09-09T09:28:02;98869.00;;;25.80
68012;BMP180;54794;48.348;7.878;2022-09-09T09:30:38;98867.00;;;25.50
68012;BMP180;54794;48.348;7.878;2022-09-09T09:33:16;98876.00;;;25.20
68012;BMP180;54794;48.348;7.878;2022-09-09T09:35:44;98861.00;;;24.90
68012;BMP180;54794;48.348;7.878;2022-09-09T09:38:19;98875.00;;;24.70
68012;BMP180;54794;48.348;7.878;2022-09-09T09:41:06;98862.00;;;24.40
68012;BMP180;54794;48.348;7.878;2022-09-09T09:43:35;98863.00;;;24.20
68012;BMP180;54794;48.348;7.878;2022-09-09T09:46:04;98858.00;;;24.00
68012;BMP180;54794;48.348;7.878;2022-09-09T09:48:43;98853.00;;;23.90
68012;BMP180;54794;48.348;7.878;2022-09-09T09:51:14;98860.00;;;23.70
68012;BMP180;54794;48.348;7.878;2022-09-09T09:53:43;98855.00;;;23.70
68012;BMP180;54794;48.348;7.878;2022-09-09T09:56:12;98851.00;;;23.60
68012;BMP180;54794;48.348;7.878;2022-09-09T10:01:27;98854.00;;;23.50
68012;BMP180;54794;48.348;7.878;2022-09-09T10:04:18;98866.00;;;23.40
68012;BMP180;54794;48.348;7.878;2022-09-09T10:06:47;98861.00;;;23.40
68012;BMP180;54794;48.348;7.878;2022-09-09T10:09:26;98851.00;;;23.40
68012;BMP180;54794;48.348;7.878;2022-09-09T10:12:16;98835.00;;;23.40
68012;BMP180;54794;48.348;7.878;2022-09-09T10:15:15;98849.00;;;23.40
68012;BMP180;54794;48.348;7.878;2022-09-09T10:21:12;98825.00;;;23.50
68012;BMP180;54794;48.348;7.878;2022-09-09T10:26:52;98840.00;;;23.70
68012;BMP180;54794;48.348;7.878;2022-09-09T10:30:19;98843.00;;;23.80
68012;BMP180;54794;48.348;7.878;2022-09-09T10:33:12;98828.00;;;23.90
68012;BMP180;54794;48.348;7.878;2022-09-09T10:35:52;98833.00;;;24.10
68012;BMP180;54794;48.348;7.878;2022-09-09T10:38:34;98822.00;;;24.20
68012;BMP180;54794;48.348;7.878;2022-09-09T10:41:15;98824.00;;;24.30
68012;BMP180;54794;48.348;7.878;2022-09-09T10:57:40;98799.00;;;24.90
68012;BMP180;54794;48.348;7.878;2022-09-09T11:00:37;98799.00;;;25.00
68012;BMP180;54794;48.348;7.878;2022-09-09T11:03:06;98798.00;;;25.20
68012;BMP180;54794;48.348;7.878;2022-09-09T11:05:49;98803.00;;;25.40
68012;BMP180;54794;48.348;7.878;2022-09-09T11:08:21;98809.00;;;25.60
68012;BMP180;54794;48.348;7.878;2022-09-09T11:11:02;98807.00;;;25.80
68012;BMP180;54794;48.348;7.878;2022-09-09T11:16:19;98804.00;;;26.00
68012;BMP180;54794;48.348;7.878;2022-09-09T11:18:47;98806.00;;;26.10
68012;BMP180;54794;48.348;7.878;2022-09-09T11:21:28;98794.00;;;26.20
68012;BMP180;54794;48.348;7.878;2022-09-09T11:24:00;98807.00;;;26.30
68012;BMP180;54794;48.348;7.878;2022-09-09T11:26:36;98812.00;;;26.40
68012;BMP180;54794;48.348;7.878;2022-09-09T11:32:08;98809.00;;;26.40
68012;BMP180;54794;48.348;7.878;2022-09-09T11:34:56;98803.00;;;26.40
68012;BMP180;54794;48.348;7.878;2022-09-09T11:40:17;98809.00;;;26.50
68012;BMP180;54794;48.348;7.878;2022-09-09T11:42:47;98799.00;;;26.50
68012;BMP180;54794;48.348;7.878;2022-09-09T11:45:23;98800.00;;;26.50
68012;BMP180;54794;48.348;7.878;2022-09-09T11:47:57;98817.00;;;26.50
68012;BMP180;54794;48.348;7.878;2022-09-09T11:52:51;98814.00;;;26.60
68012;BMP180;54794;48.348;7.878;2022-09-09T11:55:29;98808.00;;;26.50
68012;BMP180;54794;48.348;7.878;2022-09-09T11:57:58;98810.00;;;26.50
68012;BMP180;54794;48.348;7.878;2022-09-09T12:03:02;98813.00;;;26.50
68012;BMP180;54794;48.348;7.878;2022-09-09T12:05:44;98780.00;;;26.50
68012;BMP180;54794;48.348;7.878;2022-09-09T12:08:21;98801.00;;;26.40
68012;BMP180;54794;48.348;7.878;2022-09-09T12:10:58;98796.00;;;26.50
68012;BMP180;54794;48.348;7.878;2022-09-09T12:13:29;98788.00;;;26.50
68012;BMP180;54794;48.348;7.878;2022-09-09T12:16:01;98793.00;;;26.50
68012;BMP180;54794;48.348;7.878;2022-09-09T12:18:32;98800.00;;;26.50
68012;BMP180;54794;48.348;7.878;2022-09-09T12:21:21;98793.00;;;26.40
68012;BMP180;54794;48.348;7.878;2022-09-09T12:23:56;98784.00;;;26.50
68012;BMP180;54794;48.348;7.878;2022-09-09T12:26:47;98785.00;;;26.50
68012;BMP180;54794;48.348;7.878;2022-09-09T12:29:50;98786.00;;;26.50
68012;BMP180;54794;48.348;7.878;2022-09-09T12:32:28;98788.00;;;26.50
68012;BMP180;54794;48.348;7.878;2022-09-09T12:35:19;98792.00;;;26.50
68012;BMP180;54794;48.348;7.878;2022-09-09T12:37:53;98759.00;;;26.40
68012;BMP180;54794;48.348;7.878;2022-09-09T12:40:28;98770.00;;;26.50
68012;BMP180;54794;48.348;7.878;2022-09-09T12:42:55;98762.00;;;26.60
68012;BMP180;54794;48.348;7.878;2022-09-09T12:45:24;98776.00;;;26.70
68012;BMP180;54794;48.348;7.878;2022-09-09T12:48:05;98777.00;;;26.80
68012;BMP180;54794;48.348;7.878;2022-09-09T12:50:38;98773.00;;;26.90
68012;BMP180;54794;48.348;7.878;2022-09-09T12:56:37;98750.00;;;27.00
68012;BMP180;54794;48.348;7.878;2022-09-09T12:58:38;98748.00;;;27.10
68012;BMP180;54794;48.348;7.878;2022-09-09T13:01:20;98756.00;;;27.20
68012;BMP180;54794;48.348;7.878;2022-09-09T13:03:47;98755.00;;;27.40
68012;BMP180;54794;48.348;7.878;2022-09-09T13:06:28;98750.00;;;27.60
68012;BMP180;54794;48.348;7.878;2022-09-09T13:08:58;98764.00;;;27.80
68012;BMP180;54794;48.348;7.878;2022-09-09T13:11:41;98745.00;;;27.90
68012;BMP180;54794;48.348;7.878;2022-09-09T13:14:19;98757.00;;;28.00
68012;BMP180;54794;48.348;7.878;2022-09-09T13:17:00;98746.00;;;28.10
68012;BMP180;54794;48.348;7.878;2022-09-09T13:19:31;98743.00;;;28.10
68012;BMP180;54794;48.348;7.878;2022-09-09T13:21:58;98731.00;;;28.10
68012;BMP180;54794;48.348;7.878;2022-09-09T13:24:33;98722.00;;;28.10
68012;BMP180;54794;48.348;7.878;2022-09-09T13:27:19;98730.00;;;28.10
68012;BMP180;54794;48.348;7.878;2022-09-09T13:29:51;98717.00;;;28.00
68012;BMP180;54794;48.348;7.878;2022-09-09T13:32:24;98717.00;;;27.90
68012;BMP180;54794;48.348;7.878;2022-09-09T13:34:52;98712.00;;;27.90
68012;BMP180;54794;48.348;7.878;2022-09-09T13:37:36;98716.00;;;27.90
68012;BMP180;54794;48.348;7.878;2022-09-09T13:40:04;98710.00;;;27.90
68012;BMP180;54794;48.348;7.878;2022-09-09T13:42:36;98695.00;;;28.00
68012;BMP180;54794;48.348;7.878;2022-09-09T13:45:04;98718.00;;;28.00
68012;BMP180;54794;48.348;7.878;2022-09-09T13:47:33;98721.00;;;28.00
68012;BMP180;54794;48.348;7.878;2022-09-09T13:50:30;98713.00;;;27.90
68012;BMP180;54794;48.348;7.878;2022-09-09T13:52:58;98717.00;;;27.90
68012;BMP180;54794;48.348;7.878;2022-09-09T13:55:27;98716.00;;;27.80
68012;BMP180;54794;48.348;7.878;2022-09-09T14:00:22;98712.00;;;27.80
68012;BMP180;54794;48.348;7.878;2022-09-09T14:02:50;98720.00;;;27.90
68012;BMP180;54794;48.348;7.878;2022-09-09T14:05:18;98714.00;;;28.00
68012;BMP180;54794;48.348;7.878;2022-09-09T14:07:45;98713.00;;;28.00
68012;BMP180;54794;48.348;7.878;2022-09-09T14:10:18;98709.00;;;28.10
68012;BMP180;54794;48.348;7.878;2022-09-09T14:12:45;98721.00;;;28.20
68012;BMP180;54794;48.348;7.878;2022-09-09T14:15:13;98718.00;;;28.20
68012;BMP180;54794;48.348;7.878;2022-09-09T14:17:41;98722.00;;;28.30
68012;BMP180;54794;48.348;7.878;2022-09-09T14:20:09;98731.00;;;28.30
68012;BMP180;54794;48.348;7.878;2022-09-09T14:22:38;98734.00;;;28.30
68012;BMP180;54794;48.348;7.878;2022-09-09T14:25:06;98739.00;;;28.30
68012;BMP180;54794;48.348;7.878;2022-09-09T14:27:33;98733.00;;;28.20
68012;BMP180;54794;48.348;7.878;2022-09-09T14:30:00;98716.00;;;28.10
68012;BMP180;54794;48.348;7.878;2022-09-09T14:32:27;98728.00;;;28.00
68012;BMP180;54794;48.348;7.878;2022-09-09T14:34:54;98729.00;;;27.90
68012;BMP180;54794;48.348;7.878;2022-09-09T14:37:21;98740.00;;;27.80
68012;BMP180;54794;48.348;7.878;2022-09-09T14:39:47;98739.00;;;27.70
68012;BMP180;54794;48.348;7.878;2022-09-09T14:42:17;98735.00;;;27.70
68012;BMP180;54794;48.348;7.878;2022-09-09T14:44:44;98740.00;;;27.60
68012;BMP180;54794;48.348;7.878;2022-09-09T14:47:10;98743.00;;;27.50
68012;BMP180;54794;48.348;7.878;2022-09-09T14:49:38;98741.00;;;27.30
68012;BMP180;54794;48.348;7.878;2022-09-09T14:52:09;98736.00;;;27.20
68012;BMP180;54794;48.348;7.878;2022-09-09T14:54:36;98739.00;;;27.10
68012;BMP180;54794;48.348;7.878;2022-09-09T14:57:03;98748.00;;;27.00
68012;BMP180;54794;48.348;7.878;2022-09-09T14:59:29;98741.00;;;26.90
68012;BMP180;54794;48.348;7.878;2022-09-09T15:01:56;98747.00;;;26.80
68012;BMP180;54794;48.348;7.878;2022-09-09T15:04:23;98755.00;;;26.70
68012;BMP180;54794;48.348;7.878;2022-09-09T15:06:50;98756.00;;;26.70
68012;BMP180;54794;48.348;7.878;2022-09-09T15:09:19;98745.00;;;26.60
68012;BMP180;54794;48.348;7.878;2022-09-09T15:11:46;98760.00;;;26.50
68012;BMP180;54794;48.348;7.878;2022-09-09T15:14:12;98751.00;;;26.50
68012;BMP180;54794;48.348;7.878;2022-09-09T15:16:40;98747.00;;;26.40
68012;BMP180;54794;48.348;7.878;2022-09-09T15:19:07;98742.00;;;26.40
68012;BMP180;54794;48.348;7.878;2022-09-09T15:21:35;98742.00;;;26.30
68012;BMP180;54794;48.348;7.878;2022-09-09T15:24:03;98742.00;;;26.30
68012;BMP180;54794;48.348;7.878;2022-09-09T15:26:30;98734.00;;;26.30
68012;BMP180;54794;48.348;7.878;2022-09-09T15:28:57;98747.00;;;26.40
68012;BMP180;54794;48.348;7.878;2022-09-09T15:31:28;98726.00;;;26.30
68012;BMP180;54794;48.348;7.878;2022-09-09T15:33:56;98749.00;;;26.30
68012;BMP180;54794;48.348;7.878;2022-09-09T15:36:33;98754.00;;;26.30
68012;BMP180;54794;48.348;7.878;2022-09-09T15:39:01;98745.00;;;26.30
68012;BMP180;54794;48.348;7.878;2022-09-09T15:41:29;98751.00;;;26.20
68012;BMP180;54794;48.348;7.878;2022-09-09T15:43:58;98754.00;;;26.20
68012;BMP180;54794;48.348;7.878;2022-09-09T15:46:49;98758.00;;;26.20
68012;BMP180;54794;48.348;7.878;2022-09-09T15:49:21;98751.00;;;26.10
68012;BMP180;54794;48.348;7.878;2022-09-09T15:51:54;98749.00;;;26.10
68012;BMP180;54794;48.348;7.878;2022-09-09T15:54:22;98750.00;;;26.10
68012;BMP180;54794;48.348;7.878;2022-09-09T15:57:01;98731.00;;;26.00
68012;BMP180;54794;48.348;7.878;2022-09-09T15:59:29;98762.00;;;26.00
68012;BMP180;54794;48.348;7.878;2022-09-09T16:01:58;98763.00;;;25.90
68012;BMP180;54794;48.348;7.878;2022-09-09T16:04:27;98761.00;;;25.90
68012;BMP180;54794;48.348;7.878;2022-09-09T16:07:00;98772.00;;;25.80
68012;BMP180;54794;48.348;7.878;2022-09-09T16:09:27;98773.00;;;25.80
68012;BMP180;54794;48.348;7.878;2022-09-09T16:11:58;98773.00;;;25.70
68012;BMP180;54794;48.348;7.878;2022-09-09T16:14:27;98778.00;;;25.60
68012;BMP180;54794;48.348;7.878;2022-09-09T16:16:54;98770.00;;;25.60
68012;BMP180;54794;48.348;7.878;2022-09-09T16:19:22;98782.00;;;25.50
68012;BMP180;54794;48.348;7.878;2022-09-09T16:21:49;98776.00;;;25.50
68012;BMP180;54794;48.348;7.878;2022-09-09T16:24:18;98783.00;;;25.40
68012;BMP180;54794;48.348;7.878;2022-09-09T16:26:50;98777.00;;;25.40